createdAt,value
2022-11-17T00:00:37.497Z,11.36
2022-11-17T00:01:37.508Z,11.32
2022-11-17T00:02:37.556Z,11.32
2022-11-17T00:03:38.584Z,11.25
2022-11-17T00:04:37.449Z,11.28
2022-11-17T00:05:37.473Z,11.28
2022-11-17T00:06:37.417Z,11.28
2022-11-17T00:07:37.470Z,11.28
2022-11-17T00:08:37.378Z,11.28
2022-11-17T00:09:37.429Z,11.28
2022-11-17T00:10:37.347Z,11.28
2022-11-17T00:11:37.330Z,11.27
2022-11-17T00:12:37.292Z,11.25
2022-11-17T00:13:37.448Z,11.25
2022-11-17T00:14:37.307Z,11.27
2022-11-17T00:15:37.276Z,11.25
2022-11-17T00:16:37.374Z,11.22
2022-11-17T00:17:37.385Z,11.21
2022-11-17T00:18:37.342Z,11.22
2022-11-17T00:19:37.221Z,11.22
2022-11-17T00:20:37.276Z,11.21
2022-11-17T00:21:37.281Z,11.22
2022-11-17T00:22:37.197Z,11.18
2022-11-17T00:23:37.319Z,11.19
2022-11-17T00:24:37.248Z,11.18
2022-11-17T00:25:37.140Z,11.21
2022-11-17T00:26:37.134Z,11.24
2022-11-17T00:27:37.245Z,11.21
2022-11-17T00:28:37.083Z,11.25
2022-11-17T00:29:39.321Z,11.22
2022-11-17T00:30:37.055Z,11.24
2022-11-17T00:31:37.141Z,11.28
2022-11-17T00:32:37.083Z,11.27
2022-11-17T00:33:37.289Z,11.28
2022-11-17T00:34:37.007Z,11.25
2022-11-17T00:35:37.260Z,11.27
2022-11-17T00:36:36.988Z,11.24
2022-11-17T00:37:37.060Z,11.25
2022-11-17T00:38:37.008Z,11.25
2022-11-17T00:39:36.931Z,11.24
2022-11-17T00:40:36.916Z,11.25
2022-11-17T00:41:36.946Z,11.25
2022-11-17T00:42:36.910Z,11.27
2022-11-17T00:43:37.235Z,11.28
2022-11-17T00:44:36.880Z,11.27
2022-11-17T00:45:36.864Z,11.28
2022-11-17T00:46:36.841Z,11.28
2022-11-17T00:47:36.868Z,11.28
2022-11-17T00:48:36.825Z,11.33
2022-11-17T00:49:36.823Z,11.35
2022-11-17T00:50:36.783Z,11.33
2022-11-17T00:51:36.767Z,11.35
2022-11-17T00:52:36.801Z,11.36
2022-11-17T00:53:37.079Z,11.36
2022-11-17T00:54:36.902Z,11.35
2022-11-17T00:55:36.768Z,11.36
2022-11-17T00:56:36.713Z,11.32
2022-11-17T00:57:36.734Z,11.32
2022-11-17T00:58:36.737Z,11.29
2022-11-17T00:59:36.690Z,11.24
2022-11-17T01:00:36.679Z,11.21
2022-11-17T01:02:37.709Z,11.17
2022-11-17T01:03:37.728Z,11.11
2022-11-17T01:04:37.705Z,11.09
2022-11-17T01:05:37.417Z,11.04
2022-11-17T01:06:37.442Z,11.02
2022-11-17T01:07:37.500Z,10.96
2022-11-17T01:08:37.369Z,10.97
2022-11-17T01:09:37.357Z,10.91
2022-11-17T01:10:37.337Z,10.91
2022-11-17T01:11:37.349Z,10.91
2022-11-17T01:12:37.331Z,10.91
2022-11-17T01:13:37.546Z,10.89
2022-11-17T01:14:37.291Z,10.89
2022-11-17T01:15:37.348Z,10.91
2022-11-17T01:16:37.256Z,10.88
2022-11-17T01:17:37.328Z,10.91
2022-11-17T01:18:37.240Z,10.97
2022-11-17T01:19:37.242Z,10.91
2022-11-17T01:20:37.247Z,10.94
2022-11-17T01:21:37.219Z,10.92
2022-11-17T01:22:37.180Z,10.91
2022-11-17T01:23:37.380Z,10.91
2022-11-17T01:24:37.151Z,10.91
2022-11-17T01:25:37.184Z,10.89
2022-11-17T01:26:37.120Z,10.88
2022-11-17T01:27:37.187Z,10.89
2022-11-17T01:28:37.110Z,10.89
2022-11-17T01:29:37.102Z,10.89
2022-11-17T01:30:37.071Z,10.88
2022-11-17T01:31:37.042Z,10.91
2022-11-17T01:32:37.044Z,10.92
2022-11-17T01:33:37.497Z,10.96
2022-11-17T01:34:37.024Z,10.91
2022-11-17T01:35:37.045Z,10.97
2022-11-17T01:36:37.743Z,10.96
2022-11-17T01:37:36.974Z,10.97
2022-11-17T01:38:36.964Z,10.96
2022-11-17T01:39:36.986Z,10.92
2022-11-17T01:40:36.953Z,10.97
2022-11-17T01:41:36.934Z,11.00
2022-11-17T01:42:36.898Z,11.02
2022-11-17T01:43:37.277Z,11.02
2022-11-17T01:44:36.884Z,11.00
2022-11-17T01:45:36.895Z,10.99
2022-11-17T01:46:36.899Z,10.99
2022-11-17T01:47:36.855Z,10.96
2022-11-17T01:48:36.826Z,11.02
2022-11-17T01:49:36.822Z,10.96
2022-11-17T01:50:36.804Z,10.96
2022-11-17T01:51:36.797Z,10.99
2022-11-17T01:52:36.794Z,10.97
2022-11-17T01:53:37.083Z,10.97
2022-11-17T01:54:36.761Z,10.97
2022-11-17T01:55:36.767Z,10.96
2022-11-17T01:56:36.740Z,10.92
2022-11-17T01:57:36.717Z,10.92
2022-11-17T01:58:36.697Z,10.96
2022-11-17T01:59:36.698Z,10.97
2022-11-17T02:00:36.678Z,10.96
2022-11-17T02:01:36.694Z,10.94
2022-11-17T02:02:36.644Z,10.89
2022-11-17T02:03:36.963Z,10.91
2022-11-17T02:04:36.610Z,10.91
2022-11-17T02:05:36.609Z,10.89
2022-11-17T02:06:36.592Z,10.88
2022-11-17T02:07:36.656Z,10.86
2022-11-17T02:08:36.730Z,10.86
2022-11-17T02:09:36.571Z,10.85
2022-11-17T02:10:36.530Z,10.89
2022-11-17T02:11:36.527Z,10.86
2022-11-17T02:12:36.525Z,10.85
2022-11-17T02:13:36.776Z,10.86
2022-11-17T02:14:36.533Z,10.85
2022-11-17T02:15:36.466Z,10.85
2022-11-17T02:16:36.463Z,10.85
2022-11-17T02:17:36.453Z,10.86
2022-11-17T02:18:36.493Z,10.79
2022-11-17T02:19:36.422Z,10.84
2022-11-17T02:20:36.499Z,10.84
2022-11-17T02:21:36.392Z,10.85
2022-11-17T02:22:36.373Z,10.85
2022-11-17T02:23:36.690Z,10.84
2022-11-17T02:24:36.379Z,10.85
2022-11-17T02:25:36.343Z,10.86
2022-11-17T02:26:36.313Z,10.86
2022-11-17T02:27:36.312Z,10.89
2022-11-17T02:28:36.293Z,10.91
2022-11-17T02:29:36.283Z,10.91
2022-11-17T02:30:36.281Z,10.96
2022-11-17T02:31:36.264Z,10.91
2022-11-17T02:32:36.313Z,10.88
2022-11-17T02:33:36.608Z,10.84
2022-11-17T02:34:36.226Z,10.84
2022-11-17T02:35:36.224Z,10.92
2022-11-17T02:36:36.219Z,10.94
2022-11-17T02:37:36.250Z,10.97
2022-11-17T02:38:36.207Z,10.96
2022-11-17T02:39:36.155Z,10.99
2022-11-17T02:40:36.174Z,10.99
2022-11-17T02:41:36.116Z,11.00
2022-11-17T02:42:36.076Z,11.00
2022-11-17T02:43:36.506Z,11.02
2022-11-17T02:44:36.051Z,11.04
2022-11-17T02:45:36.077Z,11.07
2022-11-17T02:46:36.027Z,11.14
2022-11-17T02:47:36.055Z,11.11
2022-11-17T02:48:36.008Z,11.14
2022-11-17T02:49:35.999Z,11.11
2022-11-17T02:50:35.961Z,11.10
2022-11-17T02:51:35.996Z,11.18
2022-11-17T02:52:36.018Z,11.22
2022-11-17T02:53:36.178Z,11.22
2022-11-17T02:54:35.928Z,11.21
2022-11-17T02:55:35.919Z,11.25
2022-11-17T02:56:35.875Z,11.25
2022-11-17T02:57:35.888Z,11.33
2022-11-17T02:58:35.873Z,11.33
2022-11-17T02:59:35.880Z,11.29
2022-11-17T03:00:35.860Z,11.28
2022-11-17T03:01:35.932Z,11.28
2022-11-17T03:02:35.812Z,11.21
2022-11-17T03:03:35.989Z,11.15
2022-11-17T03:04:35.801Z,11.11
2022-11-17T03:05:35.785Z,11.07
2022-11-17T03:06:35.762Z,11.09
2022-11-17T03:07:35.819Z,11.14
2022-11-17T03:08:35.753Z,11.11
2022-11-17T03:09:35.741Z,11.15
2022-11-17T03:10:35.733Z,11.11
2022-11-17T03:11:35.711Z,11.09
2022-11-17T03:12:35.692Z,11.06
2022-11-17T03:13:36.008Z,11.06
2022-11-17T03:14:35.677Z,11.06
2022-11-17T03:15:35.673Z,11.11
2022-11-17T03:16:35.622Z,11.10
2022-11-17T03:17:35.614Z,11.14
2022-11-17T03:18:35.594Z,11.07
2022-11-17T03:19:35.574Z,11.09
2022-11-17T03:20:35.604Z,11.10
2022-11-17T03:21:35.570Z,11.09
2022-11-17T03:22:35.596Z,11.11
2022-11-17T03:23:35.743Z,11.11
2022-11-17T03:24:35.526Z,11.10
2022-11-17T03:25:35.496Z,11.11
2022-11-17T03:26:35.486Z,11.11
2022-11-17T03:27:35.491Z,11.10
2022-11-17T03:28:35.445Z,11.09
2022-11-17T03:29:35.470Z,11.06
2022-11-17T03:30:37.619Z,11.02
2022-11-17T03:31:35.422Z,11.02
2022-11-17T03:32:35.425Z,10.97
2022-11-17T03:33:35.632Z,10.96
2022-11-17T03:34:35.449Z,10.92
2022-11-17T03:35:35.365Z,10.91
2022-11-17T03:36:35.387Z,10.91
2022-11-17T03:37:35.338Z,10.92
2022-11-17T03:38:35.346Z,10.92
2022-11-17T03:39:35.307Z,10.89
2022-11-17T03:40:35.309Z,10.88
2022-11-17T03:41:35.316Z,10.84
2022-11-17T03:42:35.268Z,10.86
2022-11-17T03:43:35.530Z,10.86
2022-11-17T03:44:35.242Z,10.82
2022-11-17T03:45:35.261Z,10.84
2022-11-17T03:46:35.318Z,10.84
2022-11-17T03:47:35.208Z,10.79
2022-11-17T03:48:35.213Z,10.79
2022-11-17T03:49:35.209Z,10.82
2022-11-17T03:50:35.201Z,10.78
2022-11-17T03:51:35.200Z,10.78
2022-11-17T03:52:35.155Z,10.85
2022-11-17T03:53:35.434Z,10.86
2022-11-17T03:54:35.114Z,10.88
2022-11-17T03:55:35.103Z,10.89
2022-11-17T03:56:35.106Z,10.94
2022-11-17T03:57:35.083Z,10.94
2022-11-17T03:58:35.062Z,10.91
2022-11-17T03:59:35.042Z,10.91
2022-11-17T04:00:35.055Z,10.89
2022-11-17T04:01:35.064Z,10.92
2022-11-17T04:02:35.013Z,10.92
2022-11-17T04:03:35.310Z,10.88
2022-11-17T04:04:34.964Z,10.91
2022-11-17T04:05:35.004Z,10.91
2022-11-17T04:06:34.977Z,10.92
2022-11-17T04:07:34.992Z,11.02
2022-11-17T04:08:34.955Z,11.06
2022-11-17T04:09:34.919Z,11.07
2022-11-17T04:10:34.925Z,11.10
2022-11-17T04:11:34.884Z,11.06
2022-11-17T04:12:34.865Z,11.04
2022-11-17T04:13:35.269Z,11.02
2022-11-17T04:14:34.846Z,10.97
2022-11-17T04:15:34.826Z,10.91
2022-11-17T04:16:34.835Z,10.91
2022-11-17T04:17:34.816Z,10.89
2022-11-17T04:18:34.788Z,10.89
2022-11-17T04:19:34.778Z,10.91
2022-11-17T04:20:34.790Z,10.89
2022-11-17T04:21:34.779Z,10.86
2022-11-17T04:22:34.746Z,10.86
2022-11-17T04:23:34.924Z,10.89
2022-11-17T04:24:34.729Z,10.91
2022-11-17T04:25:34.690Z,10.94
2022-11-17T04:26:34.689Z,10.97
2022-11-17T04:27:34.689Z,10.94
2022-11-17T04:28:34.637Z,10.89
2022-11-17T04:29:34.624Z,10.84
2022-11-17T04:30:34.628Z,10.85
2022-11-17T04:31:34.609Z,10.86
2022-11-17T04:32:34.643Z,10.88
2022-11-17T04:33:34.860Z,10.96
2022-11-17T04:34:34.570Z,11.02
2022-11-17T04:35:34.565Z,11.03
2022-11-17T04:36:34.580Z,11.07
2022-11-17T04:37:34.541Z,11.11
2022-11-17T04:38:34.549Z,11.14
2022-11-17T04:39:34.531Z,11.10
2022-11-17T04:40:34.517Z,11.10
2022-11-17T04:41:34.483Z,11.14
2022-11-17T04:42:34.533Z,11.14
2022-11-17T04:43:34.824Z,11.15
2022-11-17T04:44:34.475Z,11.14
2022-11-17T04:45:34.467Z,11.14
2022-11-17T04:46:34.440Z,11.07
2022-11-17T04:47:34.444Z,11.02
2022-11-17T04:48:34.384Z,10.94
2022-11-17T04:49:34.376Z,10.94
2022-11-17T04:50:34.407Z,10.99
2022-11-17T04:51:34.348Z,11.00
2022-11-17T04:52:34.335Z,10.99
2022-11-17T04:53:34.685Z,10.94
2022-11-17T04:54:34.305Z,10.97
2022-11-17T04:55:34.282Z,10.94
2022-11-17T04:56:34.286Z,10.97
2022-11-17T04:57:34.258Z,10.97
2022-11-17T04:58:34.281Z,11.02
2022-11-17T04:59:34.274Z,10.99
2022-11-17T05:00:34.219Z,10.99
2022-11-17T05:01:34.206Z,11.03
2022-11-17T05:02:34.258Z,11.09
2022-11-17T05:03:34.509Z,11.15
2022-11-17T05:04:34.157Z,11.10
2022-11-17T05:05:34.149Z,11.21
2022-11-17T05:06:34.175Z,11.19
2022-11-17T05:07:34.218Z,11.15
2022-11-17T05:08:34.118Z,11.09
2022-11-17T05:09:34.106Z,11.06
2022-11-17T05:10:34.158Z,11.09
2022-11-17T05:11:34.090Z,11.10
2022-11-17T05:12:34.059Z,11.14
2022-11-17T05:13:34.342Z,11.15
2022-11-17T05:14:34.041Z,11.14
2022-11-17T05:15:34.011Z,11.14
2022-11-17T05:16:34.072Z,11.18
2022-11-17T05:17:33.971Z,11.25
2022-11-17T05:18:33.982Z,11.33
2022-11-17T05:19:33.961Z,11.37
2022-11-17T05:20:33.952Z,11.37
2022-11-17T05:21:33.930Z,11.35
2022-11-17T05:22:33.952Z,11.36
2022-11-17T05:23:34.107Z,11.42
2022-11-17T05:24:33.925Z,11.44
2022-11-17T05:25:33.875Z,11.49
2022-11-17T05:26:33.882Z,11.52
2022-11-17T05:27:33.860Z,11.49
2022-11-17T05:28:33.856Z,11.44
2022-11-17T05:29:33.854Z,11.44
2022-11-17T05:30:33.814Z,11.44
2022-11-17T05:31:33.815Z,11.55
2022-11-17T05:32:33.812Z,11.57
2022-11-17T05:33:37.787Z,11.55
2022-11-17T05:34:33.821Z,11.49
2022-11-17T05:35:33.786Z,11.43
2022-11-17T05:36:33.782Z,11.36
2022-11-17T05:37:33.718Z,11.28
2022-11-17T05:38:33.749Z,11.24
2022-11-17T05:39:33.766Z,11.19
2022-11-17T05:40:33.776Z,11.14
2022-11-17T05:41:33.803Z,11.09
2022-11-17T05:42:33.645Z,11.09
2022-11-17T05:43:33.990Z,11.06
2022-11-17T05:44:33.637Z,11.02
2022-11-17T05:45:33.643Z,10.99
2022-11-17T05:46:33.624Z,10.97
2022-11-17T05:47:33.589Z,10.94
2022-11-17T05:48:33.586Z,10.91
2022-11-17T05:49:33.624Z,10.86
2022-11-17T05:50:41.093Z,10.86
2022-11-17T05:51:33.533Z,10.88
2022-11-17T05:52:33.496Z,10.84
2022-11-17T05:53:33.858Z,10.85
2022-11-17T05:54:33.481Z,10.85
2022-11-17T05:55:33.514Z,10.86
2022-11-17T05:56:33.485Z,10.88
2022-11-17T05:57:33.514Z,10.89
2022-11-17T05:58:33.449Z,10.86
2022-11-17T05:59:33.418Z,10.89
2022-11-17T06:00:33.466Z,10.88
2022-11-17T06:01:33.400Z,10.88
2022-11-17T06:02:33.430Z,10.88
2022-11-17T06:03:33.684Z,10.89
2022-11-17T06:04:33.432Z,10.88
2022-11-17T06:05:33.335Z,10.86
2022-11-17T06:06:33.325Z,10.85
2022-11-17T06:07:33.354Z,10.85
2022-11-17T06:08:33.350Z,10.86
2022-11-17T06:09:33.287Z,10.86
2022-11-17T06:10:35.017Z,10.88
2022-11-17T06:11:33.460Z,10.89
2022-11-17T06:12:33.268Z,10.91
2022-11-17T06:13:33.642Z,10.88
2022-11-17T06:14:33.263Z,10.91
2022-11-17T06:15:33.234Z,10.92
2022-11-17T06:16:33.212Z,10.96
2022-11-17T06:17:33.192Z,10.92
2022-11-17T06:18:33.177Z,10.92
2022-11-17T06:19:33.173Z,10.91
2022-11-17T06:20:33.133Z,10.89
2022-11-17T06:21:49.333Z,10.89
2022-11-17T06:22:34.131Z,10.89
2022-11-17T06:23:33.408Z,10.88
2022-11-17T06:24:33.083Z,10.91
2022-11-17T06:25:33.053Z,10.94
2022-11-17T06:26:33.157Z,10.94
2022-11-17T06:27:33.024Z,10.96
2022-11-17T06:28:33.062Z,10.99
2022-11-17T06:29:33.027Z,10.97
2022-11-17T06:30:32.987Z,11.02
2022-11-17T06:31:33.005Z,11.00
2022-11-17T06:32:33.016Z,10.97
2022-11-17T06:33:33.230Z,10.97
2022-11-17T06:34:32.962Z,10.91
2022-11-17T06:35:32.943Z,10.89
2022-11-17T06:36:32.932Z,10.96
2022-11-17T06:37:32.911Z,10.96
2022-11-17T06:38:32.914Z,11.00
2022-11-17T06:39:32.888Z,11.04
2022-11-17T06:40:32.888Z,11.02
2022-11-17T06:41:32.859Z,11.07
2022-11-17T06:42:32.847Z,11.09
2022-11-17T06:43:33.056Z,11.10
2022-11-17T06:44:32.822Z,11.14
2022-11-17T06:45:32.995Z,11.10
2022-11-17T06:46:32.785Z,11.11
2022-11-17T06:47:32.802Z,11.11
2022-11-17T06:48:33.147Z,11.09
2022-11-17T06:49:32.751Z,11.07
2022-11-17T06:50:32.728Z,11.11
2022-11-17T06:51:32.784Z,11.14
2022-11-17T06:52:32.728Z,11.17
2022-11-17T06:53:32.976Z,11.15
2022-11-17T06:54:32.690Z,11.10
2022-11-17T06:55:32.722Z,11.10
2022-11-17T06:56:32.647Z,11.19
2022-11-17T06:57:32.655Z,11.22
2022-11-17T06:58:32.792Z,11.21
2022-11-17T06:59:32.603Z,11.25
2022-11-17T07:00:32.663Z,11.29
2022-11-17T07:01:32.572Z,11.28
2022-11-17T07:02:32.595Z,11.29
2022-11-17T07:04:56.881Z,11.27
2022-11-17T07:05:57.127Z,11.28
2022-11-17T07:06:56.510Z,11.25
2022-11-17T07:07:56.385Z,11.28
2022-11-17T07:08:56.362Z,11.27
2022-11-17T07:09:56.304Z,11.33
2022-11-17T07:10:57.015Z,11.28
2022-11-17T07:11:56.311Z,11.25
2022-11-17T07:12:56.291Z,11.28
2022-11-17T07:13:56.292Z,11.29
2022-11-17T07:14:56.241Z,11.36
2022-11-17T07:15:56.309Z,11.43
2022-11-17T07:16:56.221Z,11.43
2022-11-17T07:17:56.214Z,11.43
2022-11-17T07:18:56.331Z,11.39
2022-11-17T07:19:56.160Z,11.36
2022-11-17T07:20:56.180Z,11.37
2022-11-17T07:21:56.185Z,11.36
2022-11-17T07:22:56.239Z,11.33
2022-11-17T07:23:56.174Z,11.29
2022-11-17T07:24:56.149Z,11.33
2022-11-17T07:25:56.176Z,11.32
2022-11-17T07:26:57.310Z,11.35
2022-11-17T07:27:56.153Z,11.36
2022-11-17T07:28:56.062Z,11.35
2022-11-17T07:29:56.070Z,11.36
2022-11-17T07:30:56.079Z,11.39
2022-11-17T07:31:56.096Z,11.37
2022-11-17T07:32:55.973Z,11.39
2022-11-17T07:33:56.017Z,11.39
2022-11-17T07:34:56.001Z,11.43
2022-11-17T07:35:55.959Z,11.49
2022-11-17T07:36:55.934Z,11.52
2022-11-17T07:37:55.891Z,11.55
2022-11-17T07:38:55.940Z,11.58
2022-11-17T07:39:55.879Z,11.58
2022-11-17T07:40:55.900Z,11.51
2022-11-17T07:41:55.897Z,11.51
2022-11-17T07:42:55.842Z,11.43
2022-11-17T07:43:55.957Z,11.42
2022-11-17T07:44:55.884Z,11.46
2022-11-17T07:45:55.783Z,11.46
2022-11-17T07:48:03.523Z,11.47
2022-11-17T07:48:55.775Z,11.47
2022-11-17T07:49:55.767Z,11.49
2022-11-17T07:50:55.760Z,11.46
2022-11-17T07:51:55.735Z,11.46
2022-11-17T07:52:55.711Z,11.46
2022-11-17T07:53:55.694Z,11.54
2022-11-17T07:54:55.708Z,11.55
2022-11-17T07:55:55.741Z,11.49
2022-11-17T07:56:55.633Z,11.46
2022-11-17T07:57:55.639Z,11.47
2022-11-17T07:58:55.685Z,11.49
2022-11-17T07:59:55.607Z,11.51
2022-11-17T08:00:55.693Z,11.51
2022-11-17T08:01:55.599Z,11.49
2022-11-17T08:02:55.573Z,11.49
2022-11-17T08:03:55.644Z,11.49
2022-11-17T08:04:55.530Z,11.47
2022-11-17T08:05:55.516Z,11.43
2022-11-17T08:06:55.634Z,11.43
2022-11-17T08:07:55.559Z,11.37
2022-11-17T08:08:55.509Z,11.35
2022-11-17T08:09:55.512Z,11.29
2022-11-17T08:10:55.499Z,11.28
2022-11-17T08:11:55.509Z,11.24
2022-11-17T08:12:55.552Z,11.22
2022-11-17T08:13:55.427Z,11.22
2022-11-17T08:14:55.466Z,11.24
2022-11-17T08:15:55.450Z,11.21
2022-11-17T08:16:55.385Z,11.24
2022-11-17T08:17:55.594Z,11.21
2022-11-17T08:18:55.410Z,11.18
2022-11-17T08:19:55.354Z,11.19
2022-11-17T08:20:55.349Z,11.19
2022-11-17T08:21:55.373Z,11.19
2022-11-17T08:22:55.352Z,11.18
2022-11-17T08:23:55.290Z,11.18
2022-11-17T08:24:55.308Z,11.19
2022-11-17T08:25:55.307Z,11.21
2022-11-17T08:26:55.283Z,11.19
2022-11-17T08:27:55.274Z,11.19
2022-11-17T08:28:58.365Z,11.18
2022-11-17T08:29:55.262Z,11.19
2022-11-17T08:30:55.186Z,11.17
2022-11-17T08:31:55.187Z,11.17
2022-11-17T08:32:55.260Z,11.18
2022-11-17T08:33:55.141Z,11.17
2022-11-17T08:34:55.281Z,11.17
2022-11-17T08:35:55.094Z,11.15
2022-11-17T08:36:55.099Z,11.17
2022-11-17T08:37:55.083Z,11.15
2022-11-17T08:38:55.088Z,11.18
2022-11-17T08:39:55.780Z,11.17
2022-11-17T08:40:55.074Z,11.18
2022-11-17T08:41:55.065Z,11.15
2022-11-17T08:43:00.364Z,11.17
2022-11-17T08:43:56.024Z,11.17
2022-11-17T08:44:55.134Z,11.11
2022-11-17T08:45:54.935Z,11.14
2022-11-17T08:46:54.939Z,11.10
2022-11-17T08:47:55.023Z,11.10
2022-11-17T08:48:57.147Z,11.10
2022-11-17T08:49:54.897Z,11.09
2022-11-17T08:50:54.872Z,11.10
2022-11-17T08:51:54.926Z,11.07
2022-11-17T08:52:54.918Z,11.06
2022-11-17T08:53:54.856Z,11.04
2022-11-17T08:54:54.928Z,11.00
2022-11-17T08:55:54.963Z,11.00
2022-11-17T08:56:55.014Z,10.97
2022-11-17T08:57:54.830Z,10.91
2022-11-17T08:58:54.792Z,10.88
2022-11-17T08:59:54.771Z,10.86
2022-11-17T09:00:54.814Z,10.85
2022-11-17T09:01:54.726Z,10.85
2022-11-17T09:02:54.717Z,10.86
2022-11-17T09:03:54.691Z,10.85
2022-11-17T09:04:54.729Z,10.85
2022-11-17T09:05:54.692Z,10.84
2022-11-17T09:06:54.686Z,10.84
2022-11-17T09:07:54.834Z,10.86
2022-11-17T09:08:54.702Z,10.88
2022-11-17T09:09:54.692Z,10.89
2022-11-17T09:10:54.606Z,10.96
2022-11-17T09:11:54.618Z,11.00
2022-11-17T09:12:54.647Z,11.03
2022-11-17T09:13:54.658Z,11.10
2022-11-17T09:14:54.555Z,11.11
2022-11-17T09:15:54.560Z,11.17
2022-11-17T09:16:54.525Z,11.18
2022-11-17T09:17:54.524Z,11.19
2022-11-17T09:18:54.520Z,11.21
2022-11-17T09:19:54.491Z,11.27
2022-11-17T09:20:54.503Z,11.29
2022-11-17T09:21:54.483Z,11.28
2022-11-17T09:22:54.492Z,11.27
2022-11-17T09:23:54.467Z,11.28
2022-11-17T09:24:54.449Z,11.32
2022-11-17T09:25:54.525Z,11.35
2022-11-17T09:26:54.397Z,11.35
2022-11-17T09:27:54.394Z,11.36
2022-11-17T09:28:54.392Z,11.44
2022-11-17T09:29:54.344Z,11.51
2022-11-17T09:30:54.632Z,11.51
2022-11-17T09:31:54.407Z,11.54
2022-11-17T09:32:54.348Z,11.60
2022-11-17T09:33:54.419Z,11.62
2022-11-17T09:34:54.335Z,11.70
2022-11-17T09:35:54.256Z,11.78
2022-11-17T09:36:54.304Z,11.85
2022-11-17T09:37:54.269Z,11.91
2022-11-17T09:38:54.206Z,11.96
2022-11-17T09:39:54.257Z,11.94
2022-11-17T09:40:54.214Z,11.96
2022-11-17T09:41:54.190Z,11.99
2022-11-17T09:42:54.164Z,11.96
2022-11-17T09:43:54.253Z,11.95
2022-11-17T09:44:54.137Z,11.96
2022-11-17T09:45:54.126Z,11.96
2022-11-17T09:46:54.106Z,11.94
2022-11-17T09:48:06.979Z,11.98
2022-11-17T09:48:55.442Z,11.98
2022-11-17T09:49:58.712Z,11.98
2022-11-17T09:50:55.212Z,11.99
2022-11-17T09:51:54.077Z,12.01
2022-11-17T09:52:54.126Z,12.01
2022-11-17T09:53:54.027Z,11.98
2022-11-17T09:54:54.062Z,12.01
2022-11-17T09:55:54.009Z,12.01
2022-11-17T09:56:53.995Z,12.04
2022-11-17T09:57:53.999Z,12.09
2022-11-17T09:58:53.947Z,12.10
2022-11-17T09:59:53.970Z,12.05
2022-11-17T10:00:53.936Z,12.05
2022-11-17T10:01:54.086Z,12.09
2022-11-17T10:02:53.960Z,12.13
2022-11-17T10:03:53.858Z,12.12
2022-11-17T10:04:53.851Z,12.10
2022-11-17T10:05:53.926Z,12.14
2022-11-17T10:06:53.967Z,12.12
2022-11-17T10:07:53.829Z,12.12
2022-11-17T10:08:53.798Z,12.09
2022-11-17T10:09:53.797Z,12.07
2022-11-17T10:10:53.884Z,12.07
2022-11-17T10:11:53.861Z,12.05
2022-11-17T10:12:53.790Z,12.07
2022-11-17T10:13:53.739Z,12.10
2022-11-17T10:14:53.724Z,12.10
2022-11-17T10:15:53.752Z,12.09
2022-11-17T10:16:53.697Z,12.16
2022-11-17T10:17:53.958Z,12.16
2022-11-17T10:18:53.678Z,12.20
2022-11-17T10:19:53.677Z,12.24
2022-11-17T10:20:53.636Z,12.28
2022-11-17T10:21:53.602Z,12.31
2022-11-17T10:22:53.610Z,12.34
2022-11-17T10:23:54.112Z,12.35
2022-11-17T10:24:53.618Z,12.41
2022-11-17T10:25:53.603Z,12.41
2022-11-17T10:26:53.521Z,12.45
2022-11-17T10:27:53.553Z,12.50
2022-11-17T10:28:53.511Z,12.54
2022-11-17T10:29:53.541Z,12.57
2022-11-17T10:30:53.527Z,12.54
2022-11-17T10:31:53.505Z,12.53
2022-11-17T10:32:53.465Z,12.52
2022-11-17T10:33:53.470Z,12.52
2022-11-17T10:34:53.486Z,12.54
2022-11-17T10:35:53.400Z,12.56
2022-11-17T10:36:53.609Z,12.59
2022-11-17T10:37:53.355Z,12.59
2022-11-17T10:38:53.423Z,12.64
2022-11-17T10:39:53.337Z,12.71
2022-11-17T10:40:53.303Z,12.68
2022-11-17T10:41:53.373Z,12.71
2022-11-17T10:42:53.300Z,12.79
2022-11-17T10:43:53.309Z,12.86
2022-11-17T10:44:53.283Z,12.89
2022-11-17T10:45:53.259Z,12.95
2022-11-17T10:46:56.479Z,12.96
2022-11-17T10:47:54.244Z,13.03
2022-11-17T10:48:53.187Z,13.08
2022-11-17T10:49:53.335Z,13.12
2022-11-17T10:50:53.261Z,13.15
2022-11-17T10:51:53.246Z,13.15
2022-11-17T10:52:53.208Z,13.11
2022-11-17T10:53:53.159Z,13.10
2022-11-17T10:54:53.110Z,13.04
2022-11-17T10:55:53.135Z,13.10
2022-11-17T10:56:53.371Z,13.22
2022-11-17T10:57:53.061Z,13.22
2022-11-17T10:58:53.042Z,13.25
2022-11-17T10:59:56.923Z,13.26
2022-11-17T11:00:53.086Z,13.22
2022-11-17T11:01:53.111Z,13.22
2022-11-17T11:02:52.987Z,13.29
2022-11-17T11:03:52.987Z,13.36
2022-11-17T11:04:52.977Z,13.45
2022-11-17T11:05:53.015Z,13.51
2022-11-17T11:06:53.095Z,13.49
2022-11-17T11:07:52.923Z,13.41
2022-11-17T11:08:52.995Z,13.26
2022-11-17T11:09:52.890Z,13.20
2022-11-17T11:10:52.916Z,13.12
2022-11-17T11:11:52.899Z,13.14
2022-11-17T11:12:52.885Z,13.11
2022-11-17T11:13:52.872Z,13.05
2022-11-17T11:14:52.931Z,13.03
2022-11-17T11:15:52.893Z,13.00
2022-11-17T11:16:52.833Z,12.90
2022-11-17T11:17:52.827Z,12.92
2022-11-17T11:18:52.761Z,12.86
2022-11-17T11:19:52.851Z,12.85
2022-11-17T11:20:52.784Z,12.79
2022-11-17T11:21:52.803Z,12.74
2022-11-17T11:22:52.747Z,12.77
2022-11-17T11:23:52.751Z,12.77
2022-11-17T11:24:52.697Z,12.78
2022-11-17T11:25:52.718Z,12.79
2022-11-17T11:26:52.705Z,12.75
2022-11-17T11:27:52.673Z,12.79
2022-11-17T11:28:54.821Z,12.78
2022-11-17T11:29:52.677Z,12.79
2022-11-17T11:30:52.603Z,12.82
2022-11-17T11:31:52.579Z,12.79
2022-11-17T11:32:52.852Z,12.78
2022-11-17T11:33:52.743Z,12.77
2022-11-17T11:34:52.546Z,12.75
2022-11-17T11:35:52.558Z,12.78
2022-11-17T11:36:52.557Z,12.77
2022-11-17T11:37:52.547Z,12.78
2022-11-17T11:38:52.532Z,12.75
2022-11-17T11:39:52.468Z,12.77
2022-11-17T11:40:52.435Z,12.75
2022-11-17T11:41:52.486Z,12.75
2022-11-17T11:42:52.532Z,12.77
2022-11-17T11:43:52.418Z,12.79
2022-11-17T11:44:52.544Z,12.78
2022-11-17T11:45:52.504Z,12.83
2022-11-17T11:46:52.416Z,12.83
2022-11-17T11:47:52.470Z,12.83
2022-11-17T11:48:52.331Z,12.87
2022-11-17T11:49:52.303Z,12.90
2022-11-17T11:50:52.403Z,12.92
2022-11-17T11:51:52.298Z,12.89
2022-11-17T11:52:52.335Z,12.86
2022-11-17T11:53:52.321Z,12.85
2022-11-17T11:54:52.260Z,12.89
2022-11-17T11:55:52.258Z,12.93
2022-11-17T11:56:52.234Z,13.01
2022-11-17T11:57:52.276Z,13.04
2022-11-17T11:58:52.246Z,13.07
2022-11-17T11:59:52.205Z,13.04
2022-11-17T12:00:52.271Z,13.03
2022-11-17T12:02:01.428Z,12.97
2022-11-17T12:02:52.195Z,13.01
2022-11-17T12:04:00.876Z,12.97
2022-11-17T12:04:59.809Z,12.93
2022-11-17T12:05:52.088Z,12.89
2022-11-17T12:06:52.099Z,12.89
2022-11-17T12:07:52.040Z,12.82
2022-11-17T12:08:52.125Z,12.86
2022-11-17T12:09:52.048Z,12.83
2022-11-17T12:10:52.009Z,12.82
2022-11-17T12:11:51.990Z,12.85
2022-11-17T12:12:52.367Z,12.82
2022-11-17T12:13:54.283Z,12.75
2022-11-17T12:14:52.031Z,12.72
2022-11-17T12:15:52.210Z,12.72
2022-11-17T12:16:51.916Z,12.70
2022-11-17T12:17:51.935Z,12.70
2022-11-17T12:18:51.911Z,12.71
2022-11-17T12:19:51.891Z,12.68
2022-11-17T12:20:51.873Z,12.67
2022-11-17T12:21:51.859Z,12.64
2022-11-17T12:22:51.852Z,12.64
2022-11-17T12:23:51.836Z,12.65
2022-11-17T12:24:51.808Z,12.67
2022-11-17T12:25:54.201Z,12.68
2022-11-17T12:26:51.763Z,12.70
2022-11-17T12:27:51.750Z,12.70
2022-11-17T12:28:51.734Z,12.72
2022-11-17T12:29:51.744Z,12.75
2022-11-17T12:30:51.695Z,12.72
2022-11-17T12:31:51.699Z,12.74
2022-11-17T12:32:51.724Z,12.77
2022-11-17T12:33:51.654Z,12.79
2022-11-17T12:34:51.642Z,12.79
2022-11-17T12:35:51.647Z,12.78
2022-11-17T12:36:51.654Z,12.71
2022-11-17T12:37:51.617Z,12.68
2022-11-17T12:38:51.596Z,12.57
2022-11-17T12:39:51.577Z,12.49
2022-11-17T12:40:51.556Z,12.41
2022-11-17T12:41:54.653Z,12.38
2022-11-17T12:42:51.552Z,12.27
2022-11-17T12:43:51.708Z,12.17
2022-11-17T12:44:51.520Z,12.13
2022-11-17T12:45:51.536Z,12.04
2022-11-17T12:46:51.498Z,12.02
2022-11-17T12:48:11.629Z,11.98
2022-11-17T12:48:52.496Z,11.98
2022-11-17T12:49:51.458Z,11.98
2022-11-17T12:50:51.431Z,11.99
2022-11-17T12:51:51.502Z,11.98
2022-11-17T12:52:51.391Z,11.99
2022-11-17T12:53:51.359Z,12.04
2022-11-17T12:54:51.390Z,12.04
2022-11-17T12:55:51.350Z,12.07